createdAt,value
2023-03-10T00:00:14.012Z,0.07
2023-03-10T00:02:46.531Z,0.13
2023-03-10T00:05:13.411Z,0.13
2023-03-10T00:07:40.095Z,0.18
2023-03-10T00:10:07.293Z,0.29
2023-03-10T00:12:34.055Z,0.21
2023-03-10T00:15:00.834Z,0.30
2023-03-10T00:17:27.974Z,0.31
2023-03-10T00:19:54.732Z,0.26
2023-03-10T00:22:21.508Z,0.29
2023-03-10T00:24:48.311Z,0.16
2023-03-10T00:27:14.987Z,0.23
2023-03-10T00:29:41.678Z,0.22
2023-03-10T00:32:08.806Z,0.21
2023-03-10T00:34:36.036Z,0.22
2023-03-10T00:37:04.540Z,0.18
2023-03-10T00:39:31.273Z,0.18
2023-03-10T00:41:58.835Z,0.15
2023-03-10T00:44:25.583Z,0.08
2023-03-10T00:46:52.293Z,0.14
2023-03-10T00:49:19.271Z,0.08
2023-03-10T00:51:45.936Z,0.08
2023-03-10T00:54:12.621Z,0.17
2023-03-10T00:56:40.197Z,0.10
2023-03-10T00:59:07.123Z,0.33
2023-03-10T01:01:36.944Z,0.36
2023-03-10T01:04:06.932Z,0.14
2023-03-10T01:06:34.944Z,0.04
2023-03-10T01:09:02.193Z,-0.09
2023-03-10T01:11:30.877Z,-0.04
2023-03-10T01:14:00.460Z,-0.16
2023-03-10T01:16:28.498Z,-0.25
2023-03-10T01:18:57.066Z,-0.36
2023-03-10T01:21:28.174Z,-0.43
2023-03-10T01:23:55.133Z,-0.39
2023-03-10T01:26:21.854Z,-0.38
2023-03-10T01:28:49.590Z,-0.38
2023-03-10T01:31:17.611Z,-0.42
2023-03-10T01:33:45.756Z,-0.32
2023-03-10T01:36:18.751Z,-0.35
2023-03-10T01:38:47.217Z,-0.32
2023-03-10T01:41:14.630Z,-0.34
2023-03-10T01:43:43.417Z,-0.33
2023-03-10T01:46:32.090Z,-0.29
2023-03-10T01:49:07.831Z,-0.30
2023-03-10T01:51:36.970Z,-0.24
2023-03-10T01:54:09.618Z,-0.30
2023-03-10T01:56:38.254Z,-0.28
2023-03-10T01:59:05.151Z,-0.23
2023-03-10T02:01:32.773Z,-0.24
2023-03-10T02:04:05.094Z,-0.25
2023-03-10T02:06:34.641Z,-0.28
2023-03-10T02:09:03.384Z,-0.26
2023-03-10T02:11:30.611Z,-0.28
2023-03-10T02:13:57.486Z,-0.32
2023-03-10T02:16:24.403Z,-0.36
2023-03-10T02:18:51.293Z,-0.34
2023-03-10T02:21:33.062Z,-0.30
2023-03-10T02:24:32.078Z,-0.27
2023-03-10T02:27:15.484Z,-0.28
2023-03-10T02:29:58.545Z,-0.25
2023-03-10T02:32:32.866Z,-0.17
2023-03-10T02:35:00.372Z,-0.13
2023-03-10T02:37:30.522Z,-0.08
2023-03-10T02:39:58.728Z,-0.04
2023-03-10T02:42:30.667Z,-0.01
2023-03-10T02:44:57.569Z,0.00
2023-03-10T02:47:24.346Z,-0.19
2023-03-10T02:49:51.074Z,-0.10
2023-03-10T02:52:44.399Z,-0.14
2023-03-10T02:55:18.884Z,-0.20
2023-03-10T02:57:46.232Z,-0.17
2023-03-10T03:00:13.426Z,-0.24
2023-03-10T03:02:40.734Z,-0.21
2023-03-10T03:05:08.009Z,-0.16
2023-03-10T03:07:34.936Z,-0.12
2023-03-10T03:10:04.521Z,-0.14
2023-03-10T03:12:31.465Z,-0.21
2023-03-10T03:14:58.161Z,-0.29
2023-03-10T03:17:25.064Z,-0.35
2023-03-10T03:19:52.006Z,-0.41
2023-03-10T03:22:20.497Z,-0.44
2023-03-10T03:24:47.352Z,-0.46
2023-03-10T03:27:14.151Z,-0.42
2023-03-10T03:29:41.574Z,-0.30
2023-03-10T03:32:08.639Z,-0.40
2023-03-10T03:34:35.394Z,-0.33
2023-03-10T03:37:04.786Z,-0.33
2023-03-10T03:39:36.399Z,-0.31
2023-03-10T03:42:06.814Z,-0.44
2023-03-10T03:44:43.042Z,-0.45
2023-03-10T03:47:10.663Z,-0.49
2023-03-10T03:49:38.795Z,-0.52
2023-03-10T03:52:07.468Z,-0.59
2023-03-10T03:54:34.664Z,-0.66
2023-03-10T03:57:01.512Z,-0.76
2023-03-10T03:59:28.812Z,-0.85
2023-03-10T04:01:56.191Z,-0.89
2023-03-10T04:04:24.031Z,-0.90
2023-03-10T04:06:50.956Z,-0.90
2023-03-10T04:09:18.293Z,-0.94
2023-03-10T04:11:45.179Z,-0.95
2023-03-10T04:14:11.897Z,-0.99
2023-03-10T04:16:38.738Z,-1.04
2023-03-10T04:19:09.481Z,-1.04
2023-03-10T04:21:41.277Z,-1.05
2023-03-10T04:24:08.532Z,-1.00
2023-03-10T04:26:35.655Z,-1.03
2023-03-10T04:29:03.980Z,-1.11
2023-03-10T04:31:33.134Z,-1.14
2023-03-10T04:34:01.602Z,-1.10
2023-03-10T04:36:28.684Z,-1.13
2023-03-10T04:38:58.750Z,-1.23
2023-03-10T04:41:29.612Z,-1.18
2023-03-10T04:43:56.330Z,-1.32
2023-03-10T04:46:23.387Z,-1.15
2023-03-10T04:48:50.544Z,-1.24
2023-03-10T04:51:17.342Z,-1.18
2023-03-10T04:53:48.402Z,-1.18
2023-03-10T04:56:15.359Z,-1.19
2023-03-10T04:58:43.100Z,-1.20
2023-03-10T05:01:11.907Z,-1.22
2023-03-10T05:03:43.532Z,-1.22
2023-03-10T05:06:20.714Z,-1.23
2023-03-10T05:08:56.162Z,-1.25
2023-03-10T05:11:24.431Z,-1.28
2023-03-10T05:13:51.230Z,-1.30
2023-03-10T05:16:20.585Z,-1.29
2023-03-10T05:18:48.743Z,-1.31
2023-03-10T05:21:21.869Z,-1.28
2023-03-10T05:23:49.697Z,-1.28
2023-03-10T05:26:17.700Z,-1.29
2023-03-10T05:28:44.561Z,-1.28
2023-03-10T05:31:16.094Z,-1.29
2023-03-10T05:33:45.199Z,-1.30
2023-03-10T05:36:14.771Z,-1.28
2023-03-10T05:38:44.189Z,-1.25
2023-03-10T05:41:13.786Z,-1.24
2023-03-10T05:43:41.992Z,-1.23
2023-03-10T05:46:11.572Z,-1.23
2023-03-10T05:48:44.304Z,-1.19
2023-03-10T05:51:12.941Z,-1.28
2023-03-10T05:53:40.895Z,-1.38
2023-03-10T05:56:14.312Z,-1.31
2023-03-10T05:58:44.353Z,-1.35
2023-03-10T06:01:13.158Z,-1.37
2023-03-10T06:03:40.106Z,-1.31
2023-03-10T06:06:07.448Z,-1.30
2023-03-10T06:08:34.369Z,-1.22
2023-03-10T06:11:01.517Z,-1.22
2023-03-10T06:13:28.633Z,-1.23
2023-03-10T06:15:58.064Z,-1.27
2023-03-10T06:18:25.946Z,-1.32
2023-03-10T06:20:53.736Z,-1.40
2023-03-10T06:23:21.472Z,-1.45
2023-03-10T06:26:03.525Z,-1.59
2023-03-10T06:28:33.108Z,-1.65
2023-03-10T06:31:01.875Z,-1.68
2023-03-10T06:33:29.603Z,-1.69
2023-03-10T06:35:56.857Z,-1.69
2023-03-10T06:38:24.397Z,-1.64
2023-03-10T06:40:51.667Z,-1.60
2023-03-10T06:43:18.925Z,-1.61
2023-03-10T06:45:46.837Z,-1.56
2023-03-10T06:48:14.317Z,-1.55
2023-03-10T06:50:50.704Z,-1.59
2023-03-10T06:53:20.195Z,-1.51
2023-03-10T06:55:59.021Z,-1.58
2023-03-10T06:58:26.274Z,-1.66
2023-03-10T07:00:53.261Z,-1.66
2023-03-10T07:03:20.356Z,-1.66
2023-03-10T07:05:47.960Z,-1.75
2023-03-10T07:08:14.652Z,-1.79
2023-03-10T07:10:41.436Z,-1.74
2023-03-10T07:13:09.447Z,-1.79
2023-03-10T07:15:39.820Z,-1.81
2023-03-10T07:18:06.735Z,-1.81
2023-03-10T07:20:33.471Z,-1.89
2023-03-10T07:23:00.182Z,-1.81
2023-03-10T07:25:27.618Z,-1.81
2023-03-10T07:27:54.393Z,-1.79
2023-03-10T07:30:21.287Z,-1.79
2023-03-10T07:32:48.097Z,-1.83
2023-03-10T07:35:14.781Z,-1.80
2023-03-10T07:37:41.639Z,-1.71
2023-03-10T07:40:09.958Z,-1.67
2023-03-10T07:42:36.812Z,-0.69
2023-03-10T07:45:05.146Z,0.26
2023-03-10T07:47:32.242Z,0.96
2023-03-10T07:49:58.928Z,0.92
2023-03-10T07:52:25.712Z,0.21
2023-03-10T07:54:52.407Z,-0.03
2023-03-10T07:57:19.142Z,-0.09
2023-03-10T07:59:45.946Z,-0.07
2023-03-10T08:02:14.760Z,-0.10
2023-03-10T08:04:42.738Z,0.21
2023-03-10T08:07:09.556Z,0.78
2023-03-10T08:09:36.928Z,1.89
2023-03-10T08:12:04.384Z,2.36
2023-03-10T08:14:31.929Z,2.84
2023-03-10T08:16:59.327Z,3.00
2023-03-10T08:19:27.280Z,3.43
2023-03-10T08:21:56.196Z,3.55
2023-03-10T08:24:23.202Z,3.82
2023-03-10T08:26:50.099Z,3.76
2023-03-10T08:29:17.126Z,3.41
2023-03-10T08:31:43.882Z,4.53
2023-03-10T08:34:10.674Z,4.65
2023-03-10T08:36:40.194Z,3.90
2023-03-10T08:39:07.444Z,4.28
2023-03-10T08:41:42.003Z,5.00
2023-03-10T08:44:11.746Z,4.95
2023-03-10T08:46:38.641Z,5.29
2023-03-10T08:49:05.499Z,5.40
2023-03-10T08:51:32.160Z,5.09
2023-03-10T08:53:58.973Z,5.43
2023-03-10T08:56:26.445Z,5.39
2023-03-10T08:58:56.782Z,5.39
2023-03-10T09:01:23.769Z,5.47
2023-03-10T09:03:50.426Z,5.59
2023-03-10T09:06:17.250Z,5.79
2023-03-10T09:08:45.618Z,5.97
2023-03-10T09:11:19.058Z,5.92
2023-03-10T09:13:46.195Z,6.05
2023-03-10T09:16:13.563Z,5.96
2023-03-10T09:18:40.483Z,6.17
2023-03-10T09:21:07.531Z,5.58
2023-03-10T09:23:34.734Z,6.41
2023-03-10T09:26:01.371Z,6.71
2023-03-10T09:28:28.201Z,5.87
2023-03-10T09:30:55.123Z,5.84
2023-03-10T09:33:23.215Z,6.86
2023-03-10T09:36:05.309Z,7.14
2023-03-10T09:38:32.939Z,6.92
2023-03-10T09:41:37.721Z,6.72
2023-03-10T09:44:42.676Z,6.27
2023-03-10T09:47:37.129Z,5.73
2023-03-10T09:50:30.032Z,6.26
2023-03-10T09:52:59.607Z,6.27
2023-03-10T09:55:48.545Z,6.28
2023-03-10T09:58:22.295Z,6.48
2023-03-10T10:00:49.268Z,6.15
2023-03-10T10:03:27.788Z,6.17
2023-03-10T10:05:56.686Z,5.67
2023-03-10T10:08:39.872Z,5.70
2023-03-10T10:11:14.058Z,6.48
2023-03-10T10:13:43.123Z,6.83
2023-03-10T10:16:41.803Z,6.47
2023-03-10T10:19:37.177Z,6.57
2023-03-10T10:22:19.316Z,6.42
2023-03-10T10:25:10.807Z,6.15
2023-03-10T10:27:39.829Z,6.34
2023-03-10T10:30:29.560Z,5.97
2023-03-10T10:33:03.548Z,6.25
2023-03-10T10:35:52.387Z,5.91
2023-03-10T10:38:25.053Z,6.44
2023-03-10T10:41:05.799Z,6.03
2023-03-10T10:43:42.566Z,7.09
2023-03-10T10:46:10.877Z,6.71
2023-03-10T10:48:48.795Z,6.60
2023-03-10T10:51:21.077Z,6.68
2023-03-10T10:53:48.396Z,6.46
2023-03-10T10:56:18.101Z,6.47
2023-03-10T10:59:00.704Z,6.29
2023-03-10T11:01:27.561Z,6.51
2023-03-10T11:04:06.745Z,6.12
2023-03-10T11:06:34.952Z,6.50
2023-03-10T11:09:10.898Z,6.23
2023-03-10T11:11:44.567Z,6.17
2023-03-10T11:14:38.524Z,5.97
2023-03-10T11:17:14.331Z,5.90
2023-03-10T11:20:07.862Z,6.29
2023-03-10T11:22:46.850Z,6.23
2023-03-10T11:25:29.104Z,5.89
2023-03-10T11:28:19.231Z,5.94
2023-03-10T11:31:17.650Z,6.07
2023-03-10T11:34:05.974Z,6.17
2023-03-10T11:36:57.482Z,5.58
2023-03-10T11:39:24.070Z,5.86
2023-03-10T11:42:01.243Z,5.63
2023-03-10T11:44:41.879Z,5.69
2023-03-10T11:47:22.766Z,5.51
2023-03-10T11:50:01.115Z,5.78
2023-03-10T11:52:30.356Z,5.27
2023-03-10T11:55:21.636Z,5.51
2023-03-10T11:57:53.140Z,4.96
2023-03-10T12:00:33.721Z,5.50
2023-03-10T12:03:06.806Z,5.60
2023-03-10T12:05:43.902Z,5.05
2023-03-10T12:08:12.604Z,5.26
2023-03-10T12:10:41.365Z,5.33
2023-03-10T12:13:21.118Z,5.49
2023-03-10T12:15:49.553Z,5.42
2023-03-10T12:18:16.462Z,5.43
2023-03-10T12:20:43.162Z,5.51
2023-03-10T12:23:24.816Z,5.56
2023-03-10T12:25:51.599Z,5.21
2023-03-10T12:28:27.370Z,5.29
2023-03-10T12:31:00.069Z,5.14
2023-03-10T12:33:34.308Z,5.19
2023-03-10T12:36:10.091Z,5.34
2023-03-10T12:38:59.692Z,5.31
2023-03-10T12:41:26.365Z,4.97
2023-03-10T12:44:21.060Z,5.00
2023-03-10T12:47:01.203Z,4.97
2023-03-10T12:49:44.218Z,5.00
2023-03-10T12:52:52.963Z,5.04
2023-03-10T12:55:27.796Z,4.73
2023-03-10T12:58:08.707Z,4.69
2023-03-10T13:00:49.358Z,4.83
2023-03-10T13:03:19.606Z,4.80
2023-03-10T13:06:10.289Z,4.88
2023-03-10T13:08:44.298Z,4.52
2023-03-10T13:11:19.981Z,4.82
2023-03-10T13:13:58.785Z,4.57
2023-03-10T13:16:25.882Z,4.76
2023-03-10T13:18:54.410Z,4.81
2023-03-10T13:21:32.552Z,4.74
2023-03-10T13:24:01.518Z,4.73
2023-03-10T13:26:28.859Z,4.81
2023-03-10T13:29:01.162Z,4.80
2023-03-10T13:31:34.399Z,4.85
2023-03-10T13:34:18.974Z,4.80
2023-03-10T13:36:45.691Z,4.68
2023-03-10T13:39:18.706Z,4.61
2023-03-10T13:41:53.721Z,4.65
2023-03-10T13:44:29.517Z,4.73
2023-03-10T13:47:00.663Z,4.96
2023-03-10T13:49:30.874Z,4.83
2023-03-10T13:51:59.990Z,4.78
2023-03-10T13:54:35.077Z,4.57
2023-03-10T13:57:16.705Z,4.77
2023-03-10T13:59:43.686Z,4.82
2023-03-10T14:02:18.276Z,4.86
2023-03-10T14:04:50.932Z,4.35
2023-03-10T14:07:21.082Z,4.62
2023-03-10T14:10:08.961Z,4.63
2023-03-10T14:12:35.726Z,4.54
2023-03-10T14:15:14.381Z,4.56
2023-03-10T14:17:43.108Z,4.63
2023-03-10T14:20:11.849Z,4.54
2023-03-10T14:22:40.621Z,4.64
2023-03-10T14:25:18.829Z,4.61
2023-03-10T14:27:55.088Z,4.56
2023-03-10T14:30:44.162Z,4.46
2023-03-10T14:33:15.941Z,4.50
2023-03-10T14:35:43.891Z,4.60
2023-03-10T14:38:10.589Z,4.55
2023-03-10T14:40:43.342Z,4.45
2023-03-10T14:43:18.756Z,4.25
2023-03-10T14:45:47.500Z,4.29
2023-03-10T14:48:20.254Z,4.46
2023-03-10T14:50:48.054Z,4.45
2023-03-10T14:53:17.748Z,4.48
2023-03-10T14:55:50.294Z,4.52
2023-03-10T14:58:21.406Z,4.53
2023-03-10T15:00:49.014Z,4.55
2023-03-10T15:03:16.291Z,4.45
2023-03-10T15:05:48.715Z,4.22
2023-03-10T15:08:17.064Z,4.19
2023-03-10T15:10:50.572Z,4.19
2023-03-10T15:13:19.771Z,4.25
2023-03-10T15:15:48.176Z,4.24
2023-03-10T15:18:17.757Z,4.39
2023-03-10T15:20:44.769Z,4.18
2023-03-10T15:23:15.285Z,4.34
2023-03-10T15:25:45.637Z,4.36
2023-03-10T15:28:12.763Z,4.41
2023-03-10T15:30:39.487Z,4.45
2023-03-10T15:33:06.533Z,4.44
2023-03-10T15:35:33.501Z,4.50
2023-03-10T15:38:00.956Z,4.58
2023-03-10T15:40:30.196Z,4.59
2023-03-10T15:42:58.315Z,4.63
2023-03-10T15:45:28.165Z,4.54
2023-03-10T15:47:55.664Z,4.65
2023-03-10T15:50:22.887Z,4.62
2023-03-10T15:52:57.104Z,4.55
2023-03-10T15:55:25.522Z,4.55
2023-03-10T15:57:52.537Z,4.45
2023-03-10T16:00:21.972Z,4.47
2023-03-10T16:02:49.954Z,4.46
2023-03-10T16:05:17.864Z,4.42
2023-03-10T16:07:44.723Z,4.56
2023-03-10T16:10:13.406Z,4.56
2023-03-10T16:12:40.184Z,4.54
2023-03-10T16:15:07.735Z,4.45
2023-03-10T16:17:34.503Z,4.47
2023-03-10T16:20:06.498Z,4.34
2023-03-10T16:22:33.483Z,4.20
2023-03-10T16:25:00.225Z,4.26
2023-03-10T16:27:26.940Z,4.23
2023-03-10T16:29:53.712Z,4.38
2023-03-10T16:32:20.511Z,4.30
2023-03-10T16:34:47.328Z,4.27
2023-03-10T16:37:14.029Z,4.04
2023-03-10T16:39:40.728Z,4.32
2023-03-10T16:42:07.537Z,4.22
2023-03-10T16:44:34.246Z,4.18
2023-03-10T16:47:00.924Z,4.04
2023-03-10T16:49:27.761Z,4.06
2023-03-10T16:51:54.488Z,3.79
2023-03-10T16:54:22.374Z,3.83
2023-03-10T16:56:53.368Z,3.74
2023-03-10T16:59:22.355Z,3.59
2023-03-10T17:01:50.128Z,3.43
2023-03-10T17:04:17.649Z,3.29
2023-03-10T17:06:45.385Z,3.37
2023-03-10T17:09:13.475Z,3.23
2023-03-10T17:11:44.699Z,3.34
2023-03-10T17:14:14.342Z,3.27
2023-03-10T17:16:42.299Z,3.19
2023-03-10T17:19:15.048Z,3.29
2023-03-10T17:21:45.993Z,3.18
2023-03-10T17:24:14.594Z,3.05
2023-03-10T17:26:41.633Z,2.98
2023-03-10T17:29:09.237Z,2.90
2023-03-10T17:31:36.281Z,2.90
2023-03-10T17:34:07.280Z,2.80
2023-03-10T17:36:34.566Z,2.72
2023-03-10T17:39:03.128Z,2.68
2023-03-10T17:41:30.827Z,2.69
2023-03-10T17:43:57.787Z,2.55
2023-03-10T17:46:28.218Z,2.61
2023-03-10T17:48:55.107Z,2.66
2023-03-10T17:51:27.259Z,2.41
2023-03-10T17:53:58.704Z,2.24
2023-03-10T17:56:26.165Z,2.38
2023-03-10T17:58:53.821Z,2.35
2023-03-10T18:01:28.917Z,2.27
2023-03-10T18:03:57.746Z,2.22
2023-03-10T18:06:27.634Z,2.24
2023-03-10T18:08:56.617Z,2.15
2023-03-10T18:11:24.703Z,2.03
2023-03-10T18:13:51.530Z,2.04
2023-03-10T18:16:21.876Z,1.93
2023-03-10T18:18:49.573Z,1.80
2023-03-10T18:21:17.738Z,1.77
2023-03-10T18:23:45.499Z,1.84
2023-03-10T18:26:15.511Z,1.86
2023-03-10T18:28:42.479Z,1.81
2023-03-10T18:31:11.461Z,1.72
2023-03-10T18:33:38.279Z,1.65
2023-03-10T18:36:08.067Z,1.62
2023-03-10T18:38:34.776Z,1.60
2023-03-10T18:41:02.854Z,1.53
2023-03-10T18:43:30.107Z,1.40
2023-03-10T18:45:56.881Z,1.40
2023-03-10T18:48:26.915Z,1.40
2023-03-10T18:50:54.013Z,1.37
2023-03-10T18:53:21.171Z,1.39
2023-03-10T18:55:48.016Z,1.38
2023-03-10T18:58:14.800Z,1.40
2023-03-10T19:00:42.606Z,1.33
2023-03-10T19:03:13.677Z,1.32
2023-03-10T19:05:41.138Z,1.23
2023-03-10T19:08:10.334Z,1.14
2023-03-10T19:10:40.466Z,1.08
2023-03-10T19:13:08.352Z,1.05
2023-03-10T19:15:38.616Z,1.00
2023-03-10T19:18:05.587Z,0.87
2023-03-10T19:20:32.307Z,0.79
2023-03-10T19:22:59.029Z,0.74
2023-03-10T19:25:25.775Z,0.67
2023-03-10T19:27:52.601Z,0.61
2023-03-10T19:30:20.296Z,0.44
2023-03-10T19:32:48.279Z,0.40
2023-03-10T19:35:16.595Z,0.37
2023-03-10T19:37:47.249Z,0.47
2023-03-10T19:40:18.124Z,0.50
2023-03-10T19:42:45.775Z,0.50
2023-03-10T19:45:17.549Z,0.45
2023-03-10T19:47:44.986Z,0.39
2023-03-10T19:50:15.120Z,0.39
2023-03-10T19:52:49.312Z,0.37
2023-03-10T19:55:19.745Z,0.38
2023-03-10T19:57:51.051Z,0.38
2023-03-10T20:00:25.508Z,0.35
2023-03-10T20:02:55.651Z,0.26
2023-03-10T20:05:25.493Z,0.25
2023-03-10T20:07:52.757Z,0.22
2023-03-10T20:10:19.615Z,0.25
2023-03-10T20:12:51.257Z,0.18
2023-03-10T20:15:18.791Z,0.11
2023-03-10T20:17:46.062Z,0.02
2023-03-10T20:20:15.210Z,-0.03
2023-03-10T20:22:47.796Z,-0.05
2023-03-10T20:25:18.204Z,-0.11
2023-03-10T20:27:46.445Z,-0.18
2023-03-10T20:30:17.934Z,-0.23
2023-03-10T20:32:44.698Z,-0.29
2023-03-10T20:35:12.795Z,-0.28
2023-03-10T20:37:42.796Z,-0.37
2023-03-10T20:40:15.330Z,-0.44
2023-03-10T20:42:42.854Z,-0.56
2023-03-10T20:45:12.972Z,-0.57
2023-03-10T20:47:39.847Z,-0.54
2023-03-10T20:50:11.884Z,-0.47
2023-03-10T20:52:44.687Z,-0.55
2023-03-10T20:55:22.006Z,-0.54
2023-03-10T20:57:50.347Z,-0.51
2023-03-10T21:00:19.208Z,-0.50
2023-03-10T21:02:47.116Z,-0.47
2023-03-10T21:05:14.847Z,-0.51
2023-03-10T21:07:41.738Z,-0.58
2023-03-10T21:10:11.869Z,-0.51
2023-03-10T21:12:39.679Z,-0.51
2023-03-10T21:15:07.870Z,-0.60
2023-03-10T21:17:34.726Z,-0.60
2023-03-10T21:20:01.544Z,-0.58
2023-03-10T21:22:35.033Z,-0.59
2023-03-10T21:25:03.860Z,-0.71
2023-03-10T21:27:31.474Z,-0.75
2023-03-10T21:29:59.262Z,-0.80
2023-03-10T21:32:27.058Z,-0.83
2023-03-10T21:34:53.857Z,-0.74
2023-03-10T21:37:20.670Z,-0.87
2023-03-10T21:39:48.581Z,-0.88
2023-03-10T21:42:15.653Z,-0.84
2023-03-10T21:44:42.488Z,-0.89
2023-03-10T21:47:09.160Z,-0.88
2023-03-10T21:49:35.837Z,-0.93
2023-03-10T21:52:03.398Z,-0.90
2023-03-10T21:54:30.680Z,-0.90
2023-03-10T21:56:59.720Z,-0.95
2023-03-10T21:59:26.614Z,-1.05
2023-03-10T22:01:53.356Z,-1.16
2023-03-10T22:04:20.092Z,-1.15
2023-03-10T22:06:46.768Z,-1.12
2023-03-10T22:09:14.071Z,-1.08
2023-03-10T22:11:40.758Z,-1.05
2023-03-10T22:14:07.676Z,-1.09
2023-03-10T22:16:34.325Z,-1.12
2023-03-10T22:19:01.041Z,-1.16
2023-03-10T22:21:27.855Z,-1.08
2023-03-10T22:23:54.631Z,-1.11
2023-03-10T22:26:21.371Z,-1.04
2023-03-10T22:28:48.151Z,-1.03
2023-03-10T22:31:15.825Z,-1.04
2023-03-10T22:33:42.648Z,-0.98
2023-03-10T22:36:12.761Z,-0.87
2023-03-10T22:38:39.979Z,-0.91
2023-03-10T22:41:11.347Z,-0.77
2023-03-10T22:43:38.326Z,-0.71
2023-03-10T22:46:13.974Z,-0.69
2023-03-10T22:48:41.424Z,-0.78
2023-03-10T22:51:17.122Z,-0.76
2023-03-10T22:53:47.074Z,-0.82
2023-03-10T22:56:13.942Z,-0.74
2023-03-10T22:58:40.828Z,-0.80
2023-03-10T23:01:07.909Z,-0.86
2023-03-10T23:03:35.250Z,-0.88
2023-03-10T23:06:05.922Z,-0.77
2023-03-10T23:08:33.155Z,-0.76
2023-03-10T23:10:59.852Z,-0.80
2023-03-10T23:13:26.701Z,-0.81
2023-03-10T23:15:53.528Z,-0.74
2023-03-10T23:18:20.494Z,-0.72
2023-03-10T23:20:49.078Z,-0.69
2023-03-10T23:23:16.597Z,-0.66
2023-03-10T23:25:47.497Z,-0.60
2023-03-10T23:28:15.644Z,-0.56
2023-03-10T23:30:43.924Z,-0.51
2023-03-10T23:33:14.631Z,-0.42
2023-03-10T23:35:41.489Z,-0.41
2023-03-10T23:38:08.715Z,-0.42
2023-03-10T23:40:36.892Z,-0.44
2023-03-10T23:43:06.496Z,-0.44
2023-03-10T23:45:35.538Z,-0.44
2023-03-10T23:48:04.706Z,-0.34
2023-03-10T23:50:41.959Z,-0.21
2023-03-10T23:53:11.268Z,-0.16
2023-03-10T23:55:40.911Z,-0.15
2023-03-10T23:58:08.290Z,-0.16
